Time;durP1;ratioP1;P1;durP2;ratioP2;P2;SDS_P1;SDS_P2;PMS_P1;PMS_P2;Temp;Humidity;BMP_temperature;BMP_pressure;BME280_temperature;BME280_humidity;BME280_pressure;Samples;Min_cycle;Max_cycle;Signal;HPM_P1;HPM_P2
2022/01/02 00:01:48;;;;;;;15.50;12.17;;;;;;;1.26;100.00;97067.16;5071533;27;102303;-60
2022/01/02 00:04:16;;;;;;;15.97;12.23;;;;;;;1.29;100.00;97061.53;5070644;27;102472;-60
2022/01/02 00:06:48;;;;;;;17.57;12.30;;;;;;;1.07;100.00;97051.91;5071146;27;101762;-60
2022/01/02 00:09:25;;;;;;;16.93;12.40;;;;;;;1.11;100.00;97053.19;5069396;27;105031;-60
2022/01/02 00:11:58;;;;;;;16.47;11.93;;;;;;;1.30;100.00;97050.88;5074425;27;103145;-60
2022/01/02 00:14:27;;;;;;;18.23;12.40;;;;;;;1.23;100.00;97047.34;5071240;27;102663;-60
2022/01/02 00:16:55;;;;;;;16.93;13.20;;;;;;;1.31;100.00;97044.66;5068915;27;105556;-60
2022/01/02 00:19:29;;;;;;;17.40;12.47;;;;;;;1.16;100.00;97040.38;5070865;27;101791;-60
2022/01/02 00:21:59;;;;;;;16.27;11.97;;;;;;;1.08;100.00;97024.72;5069613;27;103472;-60
2022/01/02 00:24:30;;;;;;;17.33;12.03;;;;;;;0.91;100.00;97037.13;5070120;27;102654;-60
2022/01/02 00:26:59;;;;;;;16.07;12.07;;;;;;;0.91;100.00;97044.16;5069532;27;101755;-60
2022/01/02 00:29:26;;;;;;;15.27;11.90;;;;;;;0.93;100.00;97050.06;5069323;27;105224;-60
2022/01/02 00:31:55;;;;;;;15.83;12.40;;;;;;;0.71;100.00;97045.63;5069029;27;105125;-60
2022/01/02 00:34:23;;;;;;;16.77;12.67;;;;;;;0.79;100.00;97040.31;5072735;27;101899;-60
2022/01/02 00:36:50;;;;;;;17.57;13.13;;;;;;;0.91;100.00;97034.50;5068020;27;105213;-60
2022/01/02 00:39:18;;;;;;;19.07;13.63;;;;;;;0.98;100.00;97038.06;5068933;27;102016;-60
2022/01/02 00:41:54;;;;;;;22.00;14.67;;;;;;;0.83;100.00;97039.78;5069370;27;105713;-60
2022/01/02 00:44:36;;;;;;;17.53;13.67;;;;;;;0.85;100.00;97045.69;5070238;27;103084;-60
2022/01/02 00:47:14;;;;;;;17.60;12.77;;;;;;;0.87;100.00;97042.88;5068582;27;101885;-60
2022/01/02 00:49:46;;;;;;;17.57;13.40;;;;;;;0.77;100.00;97037.88;5069086;27;103739;-60
2022/01/02 00:52:18;;;;;;;15.77;12.10;;;;;;;0.87;100.00;97030.59;5068339;27;105530;-60
2022/01/02 00:54:47;;;;;;;18.60;13.17;;;;;;;0.94;100.00;97025.50;5068911;27;101792;-60
2022/01/02 00:57:19;;;;;;;16.50;12.93;;;;;;;0.93;100.00;97023.88;5071973;27;105320;-60
2022/01/02 01:00:01;;;;;;;16.20;12.17;;;;;;;1.00;100.00;97017.72;5068804;27;101938;-60
2022/01/02 01:02:34;;;;;;;17.90;13.17;;;;;;;1.05;100.00;97022.47;5068742;27;104056;-60
2022/01/02 01:05:03;;;;;;;17.03;12.50;;;;;;;0.82;100.00;97019.03;5068305;27;105703;-60
2022/01/02 01:07:31;;;;;;;17.53;12.33;;;;;;;0.85;100.00;97023.91;5068592;27;101944;-60
2022/01/02 01:10:02;;;;;;;14.00;12.30;;;;;;;0.80;100.00;97028.84;5068810;27;104820;-60
2022/01/02 01:12:31;;;;;;;13.73;11.00;;;;;;;0.80;100.00;97029.69;5068255;27;105141;-60
2022/01/02 01:15:00;;;;;;;15.07;10.87;;;;;;;0.76;100.00;97022.34;5068426;27;102109;-60
2022/01/02 01:17:28;;;;;;;16.60;11.57;;;;;;;0.78;100.00;97023.78;5068662;27;105754;-60
2022/01/02 01:19:55;;;;;;;16.87;12.17;;;;;;;0.80;100.00;97013.97;5071446;27;104154;-60
2022/01/02 01:22:22;;;;;;;16.23;12.63;;;;;;;0.80;100.00;97010.53;5068736;27;105176;-60
2022/01/02 01:24:49;;;;;;;17.53;12.80;;;;;;;0.83;100.00;97011.00;5068024;27;105971;-60
2022/01/02 01:27:17;;;;;;;14.67;11.53;;;;;;;0.85;100.00;97010.81;5068427;27;101974;-60
2022/01/02 01:29:45;;;;;;;15.73;12.17;;;;;;;0.66;100.00;97011.31;5051740;27;105606;-60
2022/01/02 01:32:12;;;;;;;17.27;11.77;;;;;;;0.63;100.00;97001.16;5067811;27;105535;-60
2022/01/02 01:34:39;;;;;;;18.90;12.03;;;;;;;0.72;100.00;96994.91;5068230;27;101728;-60
2022/01/02 01:37:07;;;;;;;16.67;12.17;;;;;;;0.59;100.00;96998.09;5067520;27;105055;-60
2022/01/02 01:39:37;;;;;;;16.13;12.03;;;;;;;0.54;100.00;97000.41;5067858;27;105376;-60
2022/01/02 01:42:10;;;;;;;16.53;11.93;;;;;;;0.60;100.00;96993.69;5071757;27;101927;-60
2022/01/02 01:45:02;;;;;;;16.27;11.47;;;;;;;0.65;100.00;97007.03;5067596;27;105624;-60
2022/01/02 01:47:30;;;;;;;15.07;11.50;;;;;;;0.67;100.00;97012.94;5067823;27;102034;-60
2022/01/02 01:49:57;;;;;;;15.97;10.93;;;;;;;0.66;100.00;97013.91;5068105;27;104863;-60
2022/01/02 01:52:24;;;;;;;16.70;10.77;;;;;;;0.64;100.00;97013.25;5067712;27;105063;-60
2022/01/02 01:54:51;;;;;;;14.87;11.17;;;;;;;0.65;100.00;97014.88;5068241;27;101915;-60
2022/01/02 01:57:18;;;;;;;13.63;10.83;;;;;;;0.63;100.00;97007.22;5067854;27;104087;-60
2022/01/02 01:59:48;;;;;;;16.33;11.43;;;;;;;0.57;100.00;97012.34;5070924;27;105477;-60
2022/01/02 02:02:16;;;;;;;12.83;10.53;;;;;;;0.63;100.00;97006.41;5071864;27;101865;-60
2022/01/02 02:04:45;;;;;;;14.30;10.87;;;;;;;0.67;100.00;97012.94;5074339;27;105346;-60
2022/01/02 02:07:16;;;;;;;16.50;11.87;;;;;;;0.70;100.00;97012.56;5071656;27;101802;-60
2022/01/02 02:10:00;;;;;;;15.30;11.50;;;;;;;0.75;100.00;97011.06;5071860;27;105115;-60
2022/01/02 02:12:28;;;;;;;16.93;11.37;;;;;;;0.57;100.00;97009.72;5071056;27;105227;-60
2022/01/02 02:14:57;;;;;;;15.60;11.33;;;;;;;0.68;100.00;97004.09;5071518;27;102042;-60
2022/01/02 02:17:26;;;;;;;13.80;10.37;;;;;;;0.62;100.00;97016.03;5071344;27;105630;-60
2022/01/02 02:19:59;;;;;;;12.90;10.27;;;;;;;0.57;100.00;97012.34;5070959;27;105451;-60
2022/01/02 02:22:27;;;;;;;15.10;11.20;;;;;;;0.45;100.00;97008.50;5071442;27;101881;-60
2022/01/02 02:24:53;;;;;;;15.40;11.23;;;;;;;0.41;100.00;97010.66;5074301;27;105487;-60
2022/01/02 02:27:23;;;;;;;14.37;10.67;;;;;;;0.31;100.00;97011.81;5071436;27;102049;-60
2022/01/02 02:29:51;;;;;;;15.17;11.27;;;;;;;0.40;100.00;97010.81;5071408;27;105350;-60
2022/01/02 02:32:21;;;;;;;14.00;11.43;;;;;;;0.37;100.00;97005.91;5070584;27;104185;-60
2022/01/02 02:34:48;;;;;;;14.50;10.87;;;;;;;0.34;100.00;97001.03;5071074;27;101881;-60
2022/01/02 02:37:17;;;;;;;17.20;11.60;;;;;;;0.31;100.00;96993.50;5070593;27;105264;-60
2022/01/02 02:39:44;;;;;;;14.70;11.10;;;;;;;0.36;100.00;96986.81;5070717;27;104698;-60
2022/01/02 02:42:23;;;;;;;15.73;11.43;;;;;;;0.28;100.00;96993.88;5071176;27;102096;-60
2022/01/02 02:44:58;;;;;;;15.07;10.60;;;;;;;0.34;100.00;96996.59;5070895;27;104783;-60
2022/01/02 02:50:09;;;;;;;13.90;10.57;;;;;;;0.29;100.00;96978.00;5071005;27;104757;-60
2022/01/02 02:52:43;;;;;;;12.93;10.17;;;;;;;0.29;100.00;96978.00;5070417;27;104987;-60
2022/01/02 02:55:12;;;;;;;14.93;10.50;;;;;;;0.23;100.00;96981.28;5071008;27;101849;-60
2022/01/02 02:57:39;;;;;;;12.83;9.97;;;;;;;0.25;100.00;96970.66;5070580;27;104748;-60
2022/01/02 03:00:08;;;;;;;13.70;10.53;;;;;;;0.36;100.00;96967.66;5070228;27;104818;-60
2022/01/02 03:02:35;;;;;;;13.57;10.53;;;;;;;0.41;100.00;96973.19;5070788;27;102363;-60
2022/01/02 03:05:02;;;;;;;13.93;10.77;;;;;;;0.50;100.00;96969.53;5070602;27;105189;-60
2022/01/02 03:07:29;;;;;;;13.63;11.00;;;;;;;0.45;100.00;96961.41;5070219;27;105019;-60
2022/01/02 03:09:59;;;;;;;14.33;10.30;;;;;;;0.45;100.00;96953.56;5073840;27;101853;-60
2022/01/02 03:12:27;;;;;;;13.43;10.67;;;;;;;0.42;100.00;96951.28;5070217;27;105380;-60
2022/01/02 03:14:56;;;;;;;13.60;10.90;;;;;;;0.36;100.00;96949.34;5070232;27;101848;-60
2022/01/02 03:17:22;;;;;;;14.73;10.93;;;;;;;0.42;100.00;96935.56;5070570;27;105203;-60
2022/01/02 03:19:50;;;;;;;12.00;10.13;;;;;;;0.52;100.00;96931.75;5069971;27;105137;-60
2022/01/02 03:22:19;;;;;;;15.93;11.03;;;;;;;0.44;100.00;96923.94;5070544;27;102369;-60
2022/01/02 03:24:49;;;;;;;15.83;10.40;;;;;;;0.37;100.00;96917.78;5070509;27;105164;-60
2022/01/02 03:27:20;;;;;;;14.17;9.73;;;;;;;0.43;100.00;96906.63;5069928;27;105311;-60
2022/01/02 03:29:47;;;;;;;13.73;9.80;;;;;;;0.32;100.00;96908.81;5071359;27;101979;-60
2022/01/02 03:32:14;;;;;;;12.37;9.60;;;;;;;0.34;100.00;96912.09;5074109;27;105167;-60
2022/01/02 03:34:41;;;;;;;13.10;9.97;;;;;;;0.40;100.00;96904.34;5071142;27;101841;-60
2022/01/02 03:37:09;;;;;;;12.67;9.73;;;;;;;0.37;100.00;96898.66;5069277;27;104814;-60
2022/01/02 03:39:37;;;;;;;13.27;9.63;;;;;;;0.37;100.00;96896.03;5070575;27;105681;-60
2022/01/02 03:42:05;;;;;;;14.07;9.50;;;;;;;0.28;100.00;96910.19;5071286;27;101884;-60
2022/01/02 03:44:33;;;;;;;13.20;9.70;;;;;;;0.31;100.00;96900.19;5070801;27;105318;-60
2022/01/02 03:47:04;;;;;;;13.67;10.27;;;;;;;0.28;100.00;96892.69;5070595;27;104952;-60
2022/01/02 03:49:31;;;;;;;12.90;9.77;;;;;;;0.25;100.00;96882.56;5070025;27;101932;-60
2022/01/02 03:51:58;;;;;;;14.20;9.50;;;;;;;0.38;100.00;96882.78;5071122;27;105346;-60
2022/01/02 03:54:25;;;;;;;15.00;9.83;;;;;;;0.36;100.00;96873.50;5074002;27;105211;-60
2022/01/02 03:56:54;;;;;;;14.27;9.77;;;;;;;0.20;100.00;96873.63;5070616;27;104827;-60
2022/01/02 03:59:21;;;;;;;12.53;9.37;;;;;;;0.29;100.00;96867.34;5070335;27;105379;-60
2022/01/02 04:01:50;;;;;;;14.23;10.00;;;;;;;0.19;100.00;96858.91;5070807;27;101891;-60
2022/01/02 04:04:17;;;;;;;13.50;9.17;;;;;;;-0.01;100.00;96855.97;5068791;27;104867;-60
2022/01/02 04:06:45;;;;;;;13.97;10.27;;;;;;;0.11;100.00;96849.31;5069688;27;105556;-60
2022/01/02 04:09:12;;;;;;;12.43;10.53;;;;;;;0.03;100.00;96845.97;5069733;27;101986;-60
2022/01/02 04:11:39;;;;;;;14.47;9.43;;;;;;;0.02;100.00;96854.78;5069515;27;104930;-60
2022/01/02 04:14:07;;;;;;;13.53;9.43;;;;;;;0.01;100.00;96840.09;5070030;27;103645;-60
2022/01/02 04:16:34;;;;;;;11.40;8.80;;;;;;;0.04;100.00;96837.13;5074140;27;102069;-60
2022/01/02 04:19:03;;;;;;;12.90;10.17;;;;;;;0.02;100.00;96844.34;5069941;27;105409;-60
2022/01/02 04:21:30;;;;;;;12.67;9.47;;;;;;;0.01;100.00;96842.72;5068591;27;101766;-60
2022/01/02 04:23:57;;;;;;;13.47;9.90;;;;;;;-0.01;100.00;96844.66;5070353;27;104853;-60
2022/01/02 04:26:25;;;;;;;12.50;9.47;;;;;;;0.05;100.00;96833.50;5069821;27;105040;-60
2022/01/02 04:28:52;;;;;;;13.40;9.13;;;;;;;0.04;100.00;96842.34;5070290;27;101974;-60
2022/01/02 04:31:19;;;;;;;15.03;9.83;;;;;;;0.05;100.00;96843.97;5070511;27;105552;-60
2022/01/02 04:33:46;;;;;;;15.27;10.03;;;;;;;0.12;100.00;96840.50;5069914;27;105116;-60
2022/01/02 04:36:15;;;;;;;13.37;10.83;;;;;;;0.10;100.00;96839.03;5071745;27;101848;-60
2022/01/02 04:38:43;;;;;;;17.37;12.20;;;;;;;0.25;100.00;96850.38;5068667;27;105035;-60
2022/01/02 04:41:11;;;;;;;18.20;12.67;;;;;;;0.34;100.00;96838.88;5069191;27;102357;-60
2022/01/02 04:43:38;;;;;;;16.50;12.53;;;;;;;0.39;100.00;96839.16;5069046;27;105222;-60
2022/01/02 04:46:06;;;;;;;17.07;12.43;;;;;;;0.54;100.00;96840.81;5068499;27;105379;-60
2022/01/02 04:48:33;;;;;;;15.30;11.87;;;;;;;0.52;100.00;96837.56;5069189;27;101909;-60
2022/01/02 04:51:00;;;;;;;18.33;12.20;;;;;;;0.52;100.00;96831.50;5069189;27;104695;-60
2022/01/02 04:53:31;;;;;;;16.97;12.63;;;;;;;0.50;100.00;96842.13;5068602;27;105220;-60
2022/01/02 04:55:58;;;;;;;16.67;11.87;;;;;;;0.34;100.00;96838.88;5068892;27;101970;-60
2022/01/02 04:58:26;;;;;;;16.10;11.53;;;;;;;0.18;100.00;96828.53;5071586;27;104932;-60
2022/01/02 05:00:53;;;;;;;17.03;11.47;;;;;;;0.09;100.00;96829.56;5051973;27;101866;-60
2022/01/02 05:03:21;;;;;;;14.10;10.50;;;;;;;-0.08;100.00;96828.88;5068917;27;104912;-60
2022/01/02 05:05:48;;;;;;;15.17;11.03;;;;;;;0.00;100.00;96835.88;5068325;27;105670;-60
2022/01/02 05:08:15;;;;;;;13.83;10.33;;;;;;;0.08;100.00;96823.53;5068727;27;102206;-60
2022/01/02 05:10:44;;;;;;;14.90;11.43;;;;;;;-0.05;100.00;96817.28;5068800;27;105229;-60
2022/01/02 05:13:12;;;;;;;14.10;10.63;;;;;;;0.00;100.00;96823.59;5068171;27;106036;-60
2022/01/02 05:15:39;;;;;;;12.77;10.13;;;;;;;-0.10;100.00;96824.81;5068729;27;101916;-60
2022/01/02 05:18:06;;;;;;;12.40;9.63;;;;;;;-0.16;100.00;96815.06;5068459;27;105250;-60
2022/01/02 05:20:33;;;;;;;13.20;9.90;;;;;;;-0.07;100.00;96816.63;5072458;27;105253;-60
2022/01/02 05:23:00;;;;;;;13.83;10.00;;;;;;;0.04;100.00;96816.22;5069534;27;105353;-60
2022/01/02 05:25:27;;;;;;;17.83;10.97;;;;;;;-0.20;100.00;96825.03;5069588;27;102524;-60
2022/01/02 05:27:57;;;;;;;14.60;9.43;;;;;;;-0.21;100.00;96826.00;5068491;27;101980;-60
2022/01/02 05:30:24;;;;;;;12.33;9.00;;;;;;;-0.18;100.00;96822.25;5069356;27;105168;-60
2022/01/02 05:32:52;;;;;;;12.70;9.23;;;;;;;-0.12;100.00;96811.09;5085726;27;105007;-60
2022/01/02 05:35:19;;;;;;;14.50;9.90;;;;;;;-0.23;100.00;96803.66;5069412;27;101916;-60
2022/01/02 05:37:46;;;;;;;13.07;9.40;;;;;;;-0.28;100.00;96800.75;5068538;27;105113;-60
2022/01/02 05:40:13;;;;;;;13.53;10.17;;;;;;;-0.17;100.00;96797.72;5068604;27;105243;-60
2022/01/02 05:42:41;;;;;;;14.70;10.73;;;;;;;-0.13;100.00;96806.84;5071704;27;102285;-60
2022/01/02 05:45:10;;;;;;;17.10;11.53;;;;;;;-0.02;100.00;96806.44;5067772;27;105843;-60
2022/01/02 05:47:38;;;;;;;16.83;11.60;;;;;;;0.01;100.00;96812.13;5068292;27;101995;-60
2022/01/02 05:50:06;;;;;;;15.07;10.77;;;;;;;0.04;100.00;96806.56;5068588;27;104847;-60
2022/01/02 05:52:34;;;;;;;15.37;10.17;;;;;;;-0.08;100.00;96815.00;5067508;27;105414;-60
2022/01/02 05:55:01;;;;;;;16.03;10.87;;;;;;;-0.12;100.00;96805.88;5068020;27;101868;-60
2022/01/02 05:57:28;;;;;;;15.87;10.77;;;;;;;0.01;100.00;96816.56;5068152;27;103753;-60
2022/01/02 05:59:56;;;;;;;15.40;10.97;;;;;;;-0.04;100.00;96811.06;5069077;27;102454;-60
2022/01/02 06:02:24;;;;;;;14.47;10.57;;;;;;;-0.09;100.00;96805.53;5068040;27;101914;-60
2022/01/02 06:04:51;;;;;;;15.53;10.77;;;;;;;-0.11;100.00;96805.69;5070750;27;105008;-60
2022/01/02 06:07:19;;;;;;;13.90;10.47;;;;;;;-0.19;100.00;96807.56;5068061;27;101969;-60
2022/01/02 06:09:46;;;;;;;18.20;11.90;;;;;;;-0.24;100.00;96807.25;5067937;27;104890;-60
2022/01/02 06:12:13;;;;;;;15.03;10.50;;;;;;;-0.23;100.00;96810.69;5067498;27;105105;-60
2022/01/02 06:14:40;;;;;;;16.20;11.27;;;;;;;-0.11;100.00;96810.94;5067674;27;102000;-60
2022/01/02 06:17:08;;;;;;;15.53;10.70;;;;;;;-0.13;100.00;96809.47;5067627;27;105322;-60
2022/01/02 06:19:37;;;;;;;14.73;10.77;;;;;;;-0.20;100.00;96809.34;5067388;27;105401;-60
2022/01/02 06:22:04;;;;;;;13.63;9.90;;;;;;;-0.18;100.00;96806.56;5067765;27;102053;-60
2022/01/02 06:24:33;;;;;;;15.90;10.30;;;;;;;-0.17;100.00;96805.56;5068812;27;104523;-60
2022/01/02 06:27:00;;;;;;;15.93;10.90;;;;;;;-0.21;100.00;96801.72;5069831;27;102748;-60
2022/01/02 06:29:27;;;;;;;14.00;10.77;;;;;;;-0.20;100.00;96792.88;5067615;27;105155;-60
2022/01/02 06:31:57;;;;;;;16.43;11.10;;;;;;;-0.24;100.00;96796.81;5067161;27;103976;-60
2022/01/02 06:34:24;;;;;;;13.73;9.87;;;;;;;-0.35;100.00;96781.53;5067759;27;101906;-60
2022/01/02 06:36:53;;;;;;;15.77;10.90;;;;;;;-0.28;100.00;96782.47;5067758;27;105280;-60
2022/01/02 06:39:20;;;;;;;15.10;9.90;;;;;;;-0.23;100.00;96780.13;5067194;27;105030;-60
2022/01/02 06:41:47;;;;;;;12.77;9.60;;;;;;;-0.38;100.00;96780.09;5068421;27;101951;-60
2022/01/02 06:44:14;;;;;;;16.43;10.80;;;;;;;-0.44;100.00;96779.94;5069449;27;103508;-60
2022/01/02 06:46:42;;;;;;;13.47;9.87;;;;;;;-0.47;100.00;96764.63;5074022;27;104987;-60
2022/01/02 06:49:09;;;;;;;12.50;8.83;;;;;;;-0.53;100.00;96777.56;5071924;27;104953;-60
2022/01/02 06:51:36;;;;;;;13.50;9.20;;;;;;;-0.47;100.00;96769.03;5070975;27;105148;-60
2022/01/02 06:54:04;;;;;;;12.37;9.30;;;;;;;-0.37;100.00;96767.84;5071877;27;101940;-60
2022/01/02 06:56:31;;;;;;;12.97;9.63;;;;;;;-0.37;100.00;96766.03;5088546;27;105218;-60
2022/01/02 06:58:58;;;;;;;14.43;9.40;;;;;;;-0.33;100.00;96766.50;5071206;27;105700;-60
2022/01/02 07:01:26;;;;;;;13.47;9.67;;;;;;;-0.28;100.00;96761.56;5071693;27;101877;-60
2022/01/02 07:03:53;;;;;;;11.40;8.43;;;;;;;-0.32;100.00;96765.53;5071685;27;104729;-60
2022/01/02 07:06:20;;;;;;;11.57;8.40;;;;;;;-0.37;100.00;96760.00;5070837;27;104921;-60
2022/01/02 07:08:47;;;;;;;13.33;9.03;;;;;;;-0.41;100.00;96766.56;5074579;27;102110;-60
2022/01/02 07:11:16;;;;;;;13.80;9.83;;;;;;;-0.40;100.00;96768.19;5070899;27;105542;-60
2022/01/02 07:13:44;;;;;;;13.63;10.53;;;;;;;-0.34;100.00;96770.09;5071412;27;101768;-60
2022/01/02 07:16:11;;;;;;;16.27;12.87;;;;;;;-0.24;100.00;96767.28;5072062;27;102525;-60
2022/01/02 07:18:39;;;;;;;21.17;14.93;;;;;;;-0.12;100.00;96770.09;5070065;27;103935;-60
2022/01/02 07:21:06;;;;;;;26.60;17.40;;;;;;;0.01;100.00;96762.47;5070601;27;101860;-60
2022/01/02 07:23:33;;;;;;;24.13;16.23;;;;;;;0.16;100.00;96757.28;5070311;27;105197;-60
2022/01/02 07:26:00;;;;;;;31.17;20.60;;;;;;;0.06;100.00;96761.97;5069822;27;105854;-60
2022/01/02 07:28:33;;;;;;;33.23;21.57;;;;;;;0.22;100.00;96767.06;5070322;27;101870;-60
2022/01/02 07:31:00;;;;;;;33.60;21.77;;;;;;;0.34;100.00;96761.19;5073421;27;105513;-60
2022/01/02 07:33:27;;;;;;;29.07;19.63;;;;;;;0.41;100.00;96756.06;5070310;27;101885;-60
2022/01/02 07:35:55;;;;;;;35.33;21.90;;;;;;;0.48;100.00;96763.03;5070518;27;102553;-60
2022/01/02 07:38:22;;;;;;;42.50;26.23;;;;;;;0.60;100.00;96766.03;5069596;27;105260;-60
2022/01/02 07:40:49;;;;;;;48.00;28.10;;;;;;;0.68;100.00;96765.94;5070295;27;101784;-60
2022/01/02 07:43:15;;;;;;;47.73;27.40;;;;;;;0.68;100.00;96765.94;5069866;27;105474;-60
2022/01/02 07:45:44;;;;;;;47.83;29.10;;;;;;;0.74;100.00;96757.34;5069401;27;105062;-60
2022/01/02 07:48:11;;;;;;;30.90;19.37;;;;;;;0.77;100.00;96762.25;5070188;27;102324;-60
2022/01/02 07:50:38;;;;;;;26.53;18.63;;;;;;;0.79;100.00;96761.06;5070034;27;105542;-60
2022/01/02 07:53:05;;;;;;;27.13;17.63;;;;;;;0.91;100.00;96758.78;5073907;27;103148;-60
2022/01/02 07:55:32;;;;;;;24.97;17.57;;;;;;;0.97;100.00;96755.44;5069672;27;104849;-60
2022/01/02 07:57:59;;;;;;;24.83;15.50;;;;;;;0.99;100.00;96758.72;5069054;27;105100;-60
2022/01/02 08:00:26;;;;;;;18.73;13.10;;;;;;;1.16;100.00;96757.50;5070042;27;101771;-60
2022/01/02 08:02:54;;;;;;;16.87;12.30;;;;;;;1.22;100.00;96754.16;5069805;27;105571;-60
2022/01/02 08:05:21;;;;;;;15.47;11.87;;;;;;;1.28;100.00;96740.31;5069124;27;105573;-60
2022/01/02 08:07:48;;;;;;;17.63;12.27;;;;;;;1.35;100.00;96730.72;5069584;27;102257;-60
2022/01/02 08:10:15;;;;;;;16.10;12.43;;;;;;;1.48;100.00;96733.50;5069661;27;105107;-60
2022/01/02 08:12:43;;;;;;;17.93;12.40;;;;;;;1.55;100.00;96729.13;5069301;27;104151;-60
2022/01/02 08:15:11;;;;;;;17.20;12.50;;;;;;;1.75;100.00;96735.38;5072862;27;102064;-60
2022/01/02 08:17:39;;;;;;;17.27;12.70;;;;;;;1.84;100.00;96736.88;5068863;27;105740;-60
2022/01/02 08:20:09;;;;;;;16.20;12.73;;;;;;;1.96;100.00;96743.22;5068756;27;101839;-60
2022/01/02 08:22:36;;;;;;;16.70;12.60;;;;;;;2.02;100.00;96739.88;5068966;27;105398;-60
2022/01/02 08:25:05;;;;;;;16.90;12.90;;;;;;;2.21;100.00;96747.91;5068206;27;103798;-60
2022/01/02 08:27:32;;;;;;;16.23;12.70;;;;;;;2.36;100.00;96742.56;5068988;27;101851;-60
2022/01/02 08:29:59;;;;;;;14.57;11.97;;;;;;;2.55;100.00;96747.13;5063286;27;106223;-59
2022/01/02 08:32:27;;;;;;;17.40;11.80;;;;;;;2.55;100.00;96736.63;5068584;27;105730;-60
2022/01/02 08:34:54;;;;;;;16.73;12.10;;;;;;;2.62;100.00;96742.75;5072650;27;101941;-60
2022/01/02 08:37:23;;;;;;;19.63;12.47;;;;;;;2.75;100.00;96743.66;5067928;27;104241;-60
2022/01/02 08:39:50;;;;;;;15.63;12.30;;;;;;;2.86;100.00;96735.22;5069235;27;101871;-60
2022/01/02 08:42:18;;;;;;;18.53;12.23;;;;;;;3.04;100.00;96739.94;5069089;27;105178;-60
2022/01/02 08:44:46;;;;;;;15.27;12.07;;;;;;;3.23;100.00;96736.59;5068478;27;105434;-60
2022/01/02 08:47:14;;;;;;;14.50;12.10;;;;;;;3.33;100.00;96735.22;5069177;27;101830;-60
2022/01/02 08:49:42;;;;;;;16.43;12.20;;;;;;;3.42;100.00;96733.22;5067219;27;105309;-60
2022/01/02 08:52:09;;;;;;;17.10;12.60;;;;;;;3.63;100.00;96735.72;5069929;27;102754;-60
2022/01/02 08:54:39;;;;;;;16.17;12.50;;;;;;;3.82;100.00;96734.97;5069030;27;101890;-60
2022/01/02 08:57:06;;;;;;;21.40;15.17;;;;;;;4.02;100.00;96725.25;5071755;27;105814;-60
2022/01/02 08:59:33;;;;;;;20.10;14.60;;;;;;;4.19;100.00;96723.84;5069016;27;101858;-60
2022/01/02 09:01:59;;;;;;;18.83;13.90;;;;;;;4.27;100.00;96723.66;5068773;27;105600;-60
2022/01/02 09:04:28;;;;;;;16.00;13.33;;;;;;;4.37;100.00;96718.78;5068302;27;105220;-60
2022/01/02 09:06:56;;;;;;;17.17;12.60;;;;;;;4.53;100.00;96710.47;5069691;27;101793;-60
2022/01/02 09:09:24;;;;;;;13.47;11.23;;;;;;;4.73;100.00;96703.31;5070313;27;102569;-60
2022/01/02 09:11:52;;;;;;;14.50;11.07;;;;;;;4.87;100.00;96705.75;5068118;27;106623;-60
2022/01/02 09:14:19;;;;;;;14.83;11.80;;;;;;;4.99;100.00;96705.88;5068598;27;101776;-60
2022/01/02 09:16:47;;;;;;;17.30;13.67;;;;;;;5.02;100.00;96692.31;5070178;27;102605;-60
2022/01/02 09:19:15;;;;;;;17.70;14.27;;;;;;;5.02;100.00;96694.94;5071417;27;105017;-60
2022/01/02 09:21:41;;;;;;;17.27;13.93;;;;;;;5.00;100.00;96695.16;5068727;27;104873;-60
2022/01/02 09:24:08;;;;;;;16.20;12.87;;;;;;;5.12;100.00;96687.41;5067655;27;105431;-60
2022/01/02 09:26:37;;;;;;;14.33;11.13;;;;;;;5.20;100.00;96685.34;5068514;27;102133;-60
2022/01/02 09:29:11;;;;;;;12.20;9.87;;;;;;;5.22;100.00;96679.84;5068265;27;105292;-60
2022/01/02 09:31:39;;;;;;;12.77;9.97;;;;;;;5.23;100.00;96684.13;5068810;27;104517;-60
2022/01/02 09:34:06;;;;;;;12.43;10.10;;;;;;;5.06;100.00;96685.59;5067518;27;102027;-60
2022/01/02 09:36:33;;;;;;;11.90;9.50;;;;;;;5.06;100.00;96696.13;5067050;27;105240;-60
2022/01/02 09:39:02;;;;;;;11.03;9.67;;;;;;;5.02;100.00;96694.94;5068138;27;105915;-60
2022/01/02 09:41:30;;;;;;;11.07;9.40;;;;;;;4.96;100.00;96695.78;5087033;27;101845;-60
2022/01/02 09:43:57;;;;;;;12.57;10.40;;;;;;;4.99;100.00;96695.34;5067521;27;105137;-60
2022/01/02 09:46:29;;;;;;;13.87;11.20;;;;;;;5.08;100.00;96702.03;5067459;27;102007;-60
2022/01/02 09:48:57;;;;;;;12.73;9.93;;;;;;;5.08;100.00;96700.19;5069383;27;102479;-60
2022/01/02 09:51:26;;;;;;;11.20;9.87;;;;;;;5.19;100.00;96690.81;5067249;27;105062;-60
2022/01/02 09:53:55;;;;;;;11.27;9.90;;;;;;;5.24;100.00;96697.06;5068626;27;102258;-60
2022/01/02 09:56:23;;;;;;;11.30;10.10;;;;;;;5.44;100.00;96689.06;5068934;27;105044;-60
2022/01/02 09:58:50;;;;;;;14.70;11.60;;;;;;;5.62;100.00;96687.34;5067198;27;105793;-60
2022/01/02 10:01:20;;;;;;;12.13;10.10;;;;;;;5.75;100.00;96683.81;5068104;27;101777;-60
2022/01/02 10:03:51;;;;;;;13.93;9.60;;;;;;;5.82;100.00;96672.22;5051996;27;102364;-60
2022/01/02 10:06:20;;;;;;;10.03;8.97;;;;;;;5.72;100.00;96671.06;5048797;27;102060;-59
2022/01/02 10:08:47;;;;;;;11.00;9.00;;;;;;;5.69;100.00;96666.19;5048557;27;105427;-60
2022/01/02 10:11:20;;;;;;;11.27;8.63;;;;;;;5.71;100.00;96657.06;5048000;27;104205;-59
2022/01/02 10:13:50;;;;;;;10.53;8.40;;;;;;;5.84;100.00;96654.34;5048525;27;102286;-59
2022/01/02 10:16:34;;;;;;;9.73;8.47;;;;;;;5.90;100.00;96660.59;5050075;27;102788;-60
2022/01/02 10:19:18;;;;;;;10.90;8.57;;;;;;;5.90;100.00;96660.59;5048429;27;104193;-59
2022/01/02 10:21:54;;;;;;;10.30;8.23;;;;;;;6.05;100.00;96656.63;5051719;27;101946;-59
2022/01/02 10:24:23;;;;;;;11.53;9.80;;;;;;;6.39;100.00;96656.09;5051889;27;105495;-59
2022/01/02 10:27:17;;;;;;;14.77;10.20;;;;;;;6.53;100.00;96654.97;5074036;27;105820;-59
2022/01/02 10:29:48;;;;;;;12.40;9.97;;;;;;;6.84;100.00;96661.97;5064309;27;103803;-59
2022/01/02 10:32:29;;;;;;;11.50;9.33;;;;;;;7.16;100.00;96666.06;5070406;27;105322;-59
2022/01/02 10:35:14;;;;;;;11.97;9.67;;;;;;;7.29;100.00;96657.94;5071382;27;101964;-59
2022/01/02 10:37:43;;;;;;;8.97;7.23;;;;;;;7.14;100.00;96650.41;5071301;27;103903;-59
2022/01/02 10:40:32;;;;;;;7.97;6.70;;;;;;;7.47;100.00;96650.00;5072505;27;102722;-59
2022/01/02 10:43:02;;;;;;;6.40;5.73;;;;;;;7.30;100.00;96649.81;5070401;27;101882;-59
2022/01/02 10:45:34;;;;;;;7.10;6.40;;;;;;;7.56;100.00;96651.28;5072115;27;105087;-60
2022/01/02 10:48:01;;;;;;;8.10;6.27;;;;;;;7.87;100.00;96648.38;5074716;27;105803;-60
2022/01/02 10:50:31;;;;;;;7.60;6.10;;;;;;;8.16;100.00;96636.91;5071450;27;104905;-60
2022/01/02 10:52:57;;;;;;;8.13;6.73;;;;;;;8.31;100.00;96645.25;5071144;27;105214;-59
2022/01/02 10:55:27;;;;;;;6.83;6.23;;;;;;;8.40;100.00;96639.38;5071815;27;101963;-60
2022/01/02 10:57:57;;;;;;;7.67;6.20;;;;;;;8.75;100.00;96639.38;5071550;27;103780;-60
2022/01/02 11:00:27;;;;;;;6.67;5.93;;;;;;;8.86;100.00;96630.59;5070030;27;102958;-60
2022/01/02 11:02:55;;;;;;;7.37;6.10;;;;;;;9.04;100.00;96625.13;5071627;27;101796;-60
2022/01/02 11:05:24;;;;;;;7.57;6.33;;;;;;;9.20;100.00;96622.53;5073215;27;102652;-60
2022/01/02 11:07:54;;;;;;;6.83;5.60;;;;;;;9.20;100.00;96627.03;5070469;27;105544;-59
2022/01/02 11:10:23;;;;;;;6.53;5.27;;;;;;;9.24;100.00;96622.88;5075040;27;102170;-60
2022/01/02 11:12:52;;;;;;;6.37;5.53;;;;;;;9.22;100.00;96611.72;5070961;27;103733;-59
2022/01/02 11:15:20;;;;;;;8.00;5.30;;;;;;;9.31;100.00;96620.88;5071847;27;102020;-60
2022/01/02 11:17:49;;;;;;;6.33;4.93;;;;;;;9.42;100.00;96601.44;5071459;27;105549;-60
2022/01/02 11:20:18;;;;;;;5.93;5.33;;;;;;;9.41;100.00;96599.84;5072399;27;103359;-60
2022/01/02 11:22:52;;;;;;;6.10;5.50;;;;;;;9.48;100.00;96606.63;5071623;27;101980;-60